Time;durP1;ratioP1;P1;durP2;ratioP2;P2;SDS_P1;SDS_P2;PMS_P1;PMS_P2;Temp;Humidity;BMP_temperature;BMP_pressure;BME280_temperature;BME280_humidity;BME280_pressure;Samples;Min_cycle;Max_cycle;Signal;HPM_P1;HPM_P2
2023/12/27 00:00:38;;;;;;;3.97;1.83;;;;;;;;;;5123660;27;20100;-66
2023/12/27 00:03:04;;;;;;;7.57;2.05;;;;;;;;;;5122755;27;20470;-66
2023/12/27 00:05:31;;;;;;;6.90;2.28;;;;;;;;;;5124104;28;20047;-66
2023/12/27 00:07:57;;;;;;;7.18;2.63;;;;;;;;;;5124384;27;20355;-67
2023/12/27 00:10:23;;;;;;;5.80;1.88;;;;;;;;;;5127319;27;20142;-67
2023/12/27 00:12:49;;;;;;;5.38;2.13;;;;;;;;;;5127226;27;20050;-67
2023/12/27 00:15:15;;;;;;;3.38;2.08;;;;;;;;;;5127350;27;20072;-66
2023/12/27 00:17:41;;;;;;;5.55;2.10;;;;;;;;;;5128219;27;20035;-66
2023/12/27 00:20:08;;;;;;;4.13;2.75;;;;;;;;;;5127492;27;20038;-66
2023/12/27 00:22:34;;;;;;;6.78;2.03;;;;;;;;;;5125254;27;20126;-66
2023/12/27 00:25:01;;;;;;;4.72;2.05;;;;;;;;;;5125581;27;20054;-65
2023/12/27 00:27:27;;;;;;;6.88;2.78;;;;;;;;;;5107492;27;20329;-66
2023/12/27 00:29:53;;;;;;;5.72;2.53;;;;;;;;;;5126368;27;20051;-66
2023/12/27 00:32:19;;;;;;;2.00;1.45;;;;;;;;;;5125632;27;20231;-67
2023/12/27 00:34:48;;;;;;;6.63;2.22;;;;;;;;;;5106730;27;20047;-65
2023/12/27 00:37:15;;;;;;;9.10;2.38;;;;;;;;;;5105357;27;20031;-66
2023/12/27 00:39:41;;;;;;;3.70;1.90;;;;;;;;;;5126027;27;20039;-67
2023/12/27 00:42:08;;;;;;;4.03;2.03;;;;;;;;;;5126809;27;20367;-66
2023/12/27 00:44:34;;;;;;;5.07;1.90;;;;;;;;;;5090734;27;20702;-66
2023/12/27 00:47:00;;;;;;;3.30;2.00;;;;;;;;;;5126895;27;20470;-65
2023/12/27 00:49:26;;;;;;;8.73;2.33;;;;;;;;;;5106870;27;20467;-65
2023/12/27 00:51:52;;;;;;;6.65;2.17;;;;;;;;;;5125337;27;20264;-66
2023/12/27 00:54:18;;;;;;;5.70;1.70;;;;;;;;;;5126283;27;20103;-66
2023/12/27 00:56:45;;;;;;;5.35;2.42;;;;;;;;;;5125713;27;20582;-65
2023/12/27 00:59:11;;;;;;;4.63;1.88;;;;;;;;;;5127681;27;20118;-66
2023/12/27 01:01:37;;;;;;;5.05;2.53;;;;;;;;;;5127815;27;20178;-65
2023/12/27 01:04:03;;;;;;;4.13;1.95;;;;;;;;;;5128025;27;20440;-66
2023/12/27 01:06:29;;;;;;;5.53;1.90;;;;;;;;;;5126758;27;20039;-65
2023/12/27 01:08:55;;;;;;;6.28;2.00;;;;;;;;;;5125363;27;20514;-67
2023/12/27 01:11:22;;;;;;;3.28;2.08;;;;;;;;;;5125103;27;20043;-65
2023/12/27 01:13:48;;;;;;;4.15;2.22;;;;;;;;;;5124617;27;20043;-66
2023/12/27 01:16:15;;;;;;;7.72;3.25;;;;;;;;;;5126729;27;20173;-66
2023/12/27 01:18:41;;;;;;;4.45;2.28;;;;;;;;;;5124871;27;20450;-66
2023/12/27 01:21:09;;;;;;;5.82;2.78;;;;;;;;;;5105832;27;20074;-66
2023/12/27 01:23:35;;;;;;;5.72;2.15;;;;;;;;;;5125349;27;20146;-67
2023/12/27 01:26:01;;;;;;;4.75;1.98;;;;;;;;;;5125338;27;20054;-66
2023/12/27 01:28:27;;;;;;;6.13;2.40;;;;;;;;;;5106288;27;20526;-65
2023/12/27 01:30:53;;;;;;;6.22;2.53;;;;;;;;;;5125551;27;20047;-65
2023/12/27 01:33:19;;;;;;;4.65;1.73;;;;;;;;;;5125899;27;20070;-66
2023/12/27 01:35:46;;;;;;;2.85;1.58;;;;;;;;;;5105453;27;20445;-66
2023/12/27 01:38:12;;;;;;;3.58;1.60;;;;;;;;;;5105892;27;20091;-66
2023/12/27 01:40:38;;;;;;;4.55;2.08;;;;;;;;;;5124646;27;20047;-65
2023/12/27 01:43:04;;;;;;;4.28;1.88;;;;;;;;;;5106051;27;20039;-67
2023/12/27 01:45:30;;;;;;;6.45;1.75;;;;;;;;;;5125899;27;20406;-65
2023/12/27 01:47:57;;;;;;;13.10;3.20;;;;;;;;;;5106620;27;20326;-65
2023/12/27 01:50:23;;;;;;;6.55;2.00;;;;;;;;;;5125701;27;20043;-66
2023/12/27 01:52:49;;;;;;;2.95;1.80;;;;;;;;;;5123600;27;20043;-65
2023/12/27 01:55:16;;;;;;;4.95;1.80;;;;;;;;;;5124004;27;21073;-65
2023/12/27 01:57:42;;;;;;;4.55;1.85;;;;;;;;;;5104847;27;20035;-67
2023/12/27 02:00:09;;;;;;;4.85;2.53;;;;;;;;;;5125699;27;20043;-67
2023/12/27 02:02:38;;;;;;;6.20;1.90;;;;;;;;;;5125175;27;20060;-66
2023/12/27 02:05:04;;;;;;;4.63;1.95;;;;;;;;;;5125253;27;20593;-66
2023/12/27 02:07:30;;;;;;;3.35;1.55;;;;;;;;;;5104816;27;20039;-66
2023/12/27 02:09:57;;;;;;;3.55;1.35;;;;;;;;;;5125349;27;20707;-65
2023/12/27 02:12:26;;;;;;;3.17;1.77;;;;;;;;;;5122912;27;20046;-66
2023/12/27 02:14:53;;;;;;;4.65;1.83;;;;;;;;;;5125075;27;20126;-66
2023/12/27 02:17:19;;;;;;;6.20;2.47;;;;;;;;;;5124394;27;20434;-65
2023/12/27 02:19:46;;;;;;;3.97;1.98;;;;;;;;;;5125062;27;20072;-66
2023/12/27 02:22:13;;;;;;;5.85;2.67;;;;;;;;;;5122739;27;20048;-67
2023/12/27 02:24:40;;;;;;;3.55;2.15;;;;;;;;;;5122180;27;20054;-66
2023/12/27 02:27:06;;;;;;;2.67;1.70;;;;;;;;;;5122382;27;20466;-66
2023/12/27 02:29:32;;;;;;;5.25;1.90;;;;;;;;;;5124352;27;20043;-67
2023/12/27 02:31:58;;;;;;;7.18;2.17;;;;;;;;;;5123815;27;20051;-67
2023/12/27 02:34:24;;;;;;;4.32;2.05;;;;;;;;;;5124467;27;20047;-65
2023/12/27 02:36:51;;;;;;;10.13;2.28;;;;;;;;;;5123137;27;20140;-65
2023/12/27 02:39:18;;;;;;;3.28;1.45;;;;;;;;;;5124389;27;20043;-66
2023/12/27 02:41:44;;;;;;;5.50;2.38;;;;;;;;;;5123726;27;20099;-64
2023/12/27 02:44:10;;;;;;;3.65;1.88;;;;;;;;;;5124139;27;20050;-66
2023/12/27 02:46:36;;;;;;;6.63;2.20;;;;;;;;;;5124006;27;20031;-65
2023/12/27 02:49:02;;;;;;;5.97;1.77;;;;;;;;;;5124841;27;20059;-66
2023/12/27 02:51:28;;;;;;;6.90;2.28;;;;;;;;;;5123306;27;20043;-66
2023/12/27 02:53:54;;;;;;;5.22;1.65;;;;;;;;;;5123531;27;20543;-66
2023/12/27 02:56:21;;;;;;;3.55;1.90;;;;;;;;;;5123564;27;20084;-65
2023/12/27 02:58:47;;;;;;;6.10;1.95;;;;;;;;;;5124058;27;20398;-65
2023/12/27 03:01:13;;;;;;;3.78;2.25;;;;;;;;;;5124487;27;20046;-66
2023/12/27 03:03:39;;;;;;;5.65;2.10;;;;;;;;;;5123845;27;20043;-66
2023/12/27 03:06:06;;;;;;;3.40;1.80;;;;;;;;;;5123273;27;20131;-66
2023/12/27 03:08:35;;;;;;;4.72;1.88;;;;;;;;;;5123251;27;20054;-65
2023/12/27 03:11:01;;;;;;;7.78;2.38;;;;;;;;;;5123190;27;20463;-66
2023/12/27 03:13:27;;;;;;;4.38;2.92;;;;;;;;;;5123545;27;20422;-65
2023/12/27 03:15:53;;;;;;;10.45;2.33;;;;;;;;;;5122486;27;20038;-66
2023/12/27 03:18:19;;;;;;;6.68;2.17;;;;;;;;;;5124000;27;20039;-66
2023/12/27 03:20:45;;;;;;;6.10;2.10;;;;;;;;;;5122445;27;20031;-65
2023/12/27 03:23:13;;;;;;;5.70;2.35;;;;;;;;;;5122646;27;20087;-66
2023/12/27 03:25:39;;;;;;;7.75;2.60;;;;;;;;;;5123823;27;20134;-67
2023/12/27 03:28:05;;;;;;;8.30;2.15;;;;;;;;;;5122815;27;20142;-66
2023/12/27 03:30:32;;;;;;;6.25;2.50;;;;;;;;;;5123224;27;20429;-66
2023/12/27 03:32:58;;;;;;;6.50;2.42;;;;;;;;;;5122638;27;20070;-67
2023/12/27 03:35:24;;;;;;;6.43;2.15;;;;;;;;;;5122006;27;20066;-66
2023/12/27 03:37:50;;;;;;;9.30;2.13;;;;;;;;;;5122409;27;20043;-66
2023/12/27 03:40:16;;;;;;;7.28;2.83;;;;;;;;;;5121914;28;20542;-66
2023/12/27 03:42:42;;;;;;;6.85;2.67;;;;;;;;;;5121340;27;20343;-65
2023/12/27 03:45:09;;;;;;;8.52;2.50;;;;;;;;;;5122343;28;20126;-66
2023/12/27 03:47:35;;;;;;;5.53;2.80;;;;;;;;;;5123092;28;20046;-65
2023/12/27 03:50:02;;;;;;;4.55;2.35;;;;;;;;;;5121878;28;20074;-66
2023/12/27 03:52:29;;;;;;;5.90;2.10;;;;;;;;;;5122170;28;20443;-66
2023/12/27 03:54:55;;;;;;;4.97;2.55;;;;;;;;;;5119735;28;20042;-65
2023/12/27 03:57:23;;;;;;;6.43;2.47;;;;;;;;;;5122417;27;20114;-66
2023/12/27 03:59:49;;;;;;;11.45;2.63;;;;;;;;;;5122130;28;20801;-66
2023/12/27 04:02:15;;;;;;;6.40;2.47;;;;;;;;;;5103868;28;20443;-66
2023/12/27 04:04:41;;;;;;;5.18;2.15;;;;;;;;;;5122677;27;20474;-66
2023/12/27 04:07:07;;;;;;;5.22;3.10;;;;;;;;;;5121071;27;20034;-65
2023/12/27 04:09:34;;;;;;;4.40;2.97;;;;;;;;;;5121546;28;20050;-67
2023/12/27 04:12:00;;;;;;;5.20;2.38;;;;;;;;;;5118942;27;20074;-64
2023/12/27 04:14:26;;;;;;;7.57;3.28;;;;;;;;;;5119912;28;20043;-64
2023/12/27 04:16:52;;;;;;;4.50;2.08;;;;;;;;;;5121937;28;20046;-64
2023/12/27 04:19:18;;;;;;;6.53;2.38;;;;;;;;;;5122474;27;20510;-65
2023/12/27 04:21:44;;;;;;;5.82;1.85;;;;;;;;;;5119557;27;20445;-65
2023/12/27 04:24:10;;;;;;;4.13;2.20;;;;;;;;;;5104343;28;20121;-66
2023/12/27 04:26:40;;;;;;;3.13;1.83;;;;;;;;;;5101835;27;20480;-65
2023/12/27 04:29:07;;;;;;;7.05;2.83;;;;;;;;;;5105107;28;20120;-65
2023/12/27 04:31:33;;;;;;;5.40;2.30;;;;;;;;;;5083337;28;1136245;-65
2023/12/27 04:34:00;;;;;;;5.18;2.28;;;;;;;;;;5125253;28;20698;-65
2023/12/27 04:36:26;;;;;;;8.15;2.30;;;;;;;;;;5120002;27;20039;-65
2023/12/27 04:38:52;;;;;;;6.85;2.40;;;;;;;;;;5099126;28;20057;-66
2023/12/27 04:41:18;;;;;;;7.03;2.53;;;;;;;;;;5120177;28;20145;-65
2023/12/27 04:43:44;;;;;;;7.80;2.63;;;;;;;;;;5101265;28;20469;-65
2023/12/27 04:46:11;;;;;;;5.07;2.30;;;;;;;;;;5120435;27;20063;-66
2023/12/27 04:48:37;;;;;;;4.68;2.42;;;;;;;;;;5120666;28;20421;-65
2023/12/27 04:51:03;;;;;;;6.93;2.60;;;;;;;;;;5120217;28;20045;-65
2023/12/27 04:53:29;;;;;;;4.50;2.30;;;;;;;;;;5120074;27;20079;-65
2023/12/27 04:55:55;;;;;;;5.05;2.33;;;;;;;;;;5124516;27;20099;-65
2023/12/27 04:58:21;;;;;;;4.53;2.30;;;;;;;;;;5123565;27;20070;-64
2023/12/27 05:00:48;;;;;;;4.97;2.22;;;;;;;;;;5123990;27;21066;-65
2023/12/27 05:03:14;;;;;;;7.45;2.45;;;;;;;;;;5123159;27;20047;-66
2023/12/27 05:05:40;;;;;;;5.55;2.30;;;;;;;;;;5123812;27;20045;-66
2023/12/27 05:08:06;;;;;;;5.72;2.05;;;;;;;;;;5121081;27;20078;-65
2023/12/27 05:10:32;;;;;;;5.80;2.25;;;;;;;;;;5123482;27;20131;-64
2023/12/27 05:12:58;;;;;;;10.68;2.65;;;;;;;;;;5121436;27;20126;-66
2023/12/27 05:15:24;;;;;;;3.88;1.85;;;;;;;;;;5122601;27;20930;-65
2023/12/27 05:17:50;;;;;;;7.18;2.70;;;;;;;;;;5124156;27;20035;-65
2023/12/27 05:20:17;;;;;;;8.82;2.50;;;;;;;;;;5122586;27;20035;-64
2023/12/27 05:22:44;;;;;;;6.35;2.40;;;;;;;;;;5123145;27;20038;-65
2023/12/27 05:25:10;;;;;;;3.22;1.98;;;;;;;;;;5124116;27;20165;-65
2023/12/27 05:27:36;;;;;;;14.63;2.58;;;;;;;;;;5122667;27;20047;-66
2023/12/27 05:30:03;;;;;;;3.70;2.22;;;;;;;;;;5123442;27;20087;-67
2023/12/27 05:32:29;;;;;;;4.05;2.17;;;;;;;;;;5103940;27;20150;-66
2023/12/27 05:34:55;;;;;;;4.80;2.40;;;;;;;;;;5121944;27;20048;-67
2023/12/27 05:37:21;;;;;;;4.90;3.20;;;;;;;;;;5122107;27;20863;-67
2023/12/27 05:39:47;;;;;;;6.15;2.85;;;;;;;;;;5122922;27;20123;-65
2023/12/27 05:42:13;;;;;;;5.43;2.28;;;;;;;;;;5123104;27;20117;-66
2023/12/27 05:44:40;;;;;;;6.72;2.20;;;;;;;;;;5122910;27;20118;-66
2023/12/27 05:47:06;;;;;;;10.18;2.63;;;;;;;;;;5122518;27;20076;-65
2023/12/27 05:49:33;;;;;;;5.97;2.70;;;;;;;;;;5122730;27;20086;-67
2023/12/27 05:52:00;;;;;;;6.20;2.78;;;;;;;;;;5122101;27;20419;-65
2023/12/27 05:54:26;;;;;;;11.85;2.70;;;;;;;;;;5122513;27;20108;-66
2023/12/27 05:56:53;;;;;;;3.92;2.42;;;;;;;;;;5121202;27;20031;-65
2023/12/27 05:59:19;;;;;;;5.15;2.38;;;;;;;;;;5120375;27;20058;-66
2023/12/27 06:01:46;;;;;;;10.15;3.10;;;;;;;;;;5122238;27;20042;-66
2023/12/27 06:04:14;;;;;;;5.53;3.10;;;;;;;;;;5122511;27;20092;-65
2023/12/27 06:06:40;;;;;;;5.03;2.13;;;;;;;;;;5121891;27;20047;-65
2023/12/27 06:09:06;;;;;;;4.68;3.13;;;;;;;;;;5125246;27;20050;-64
2023/12/27 06:11:32;;;;;;;11.68;3.72;;;;;;;;;;5124624;27;20533;-66
2023/12/27 06:13:58;;;;;;;7.28;3.03;;;;;;;;;;5124547;27;20213;-66
2023/12/27 06:16:24;;;;;;;8.70;3.22;;;;;;;;;;5124836;27;20039;-65
2023/12/27 06:18:54;;;;;;;8.82;2.60;;;;;;;;;;5106064;27;20035;-66
2023/12/27 06:21:20;;;;;;;6.60;3.20;;;;;;;;;;5124689;27;20052;-65
2023/12/27 06:23:47;;;;;;;6.20;3.25;;;;;;;;;;5123556;27;20486;-66
2023/12/27 06:26:13;;;;;;;10.02;2.60;;;;;;;;;;5105869;27;20130;-66
2023/12/27 06:28:40;;;;;;;8.32;3.53;;;;;;;;;;5123779;27;20571;-64
2023/12/27 06:31:06;;;;;;;7.32;2.92;;;;;;;;;;5124776;27;20199;-66
2023/12/27 06:33:32;;;;;;;6.75;3.17;;;;;;;;;;5124207;27;20514;-65
2023/12/27 06:35:58;;;;;;;10.45;2.45;;;;;;;;;;5120116;27;20046;-65
2023/12/27 06:38:25;;;;;;;6.03;2.72;;;;;;;;;;5121330;27;20041;-66
2023/12/27 06:40:51;;;;;;;6.00;2.88;;;;;;;;;;5122183;27;20043;-66
2023/12/27 06:43:17;;;;;;;8.50;3.47;;;;;;;;;;5121666;27;20061;-66
2023/12/27 06:45:43;;;;;;;10.10;2.67;;;;;;;;;;5119993;27;20050;-66
2023/12/27 06:48:09;;;;;;;5.03;1.98;;;;;;;;;;5119276;27;20083;-65
2023/12/27 06:50:35;;;;;;;5.03;1.90;;;;;;;;;;5120883;27;20140;-65
2023/12/27 06:53:01;;;;;;;5.28;2.22;;;;;;;;;;5099189;27;20051;-65
2023/12/27 06:55:27;;;;;;;5.53;2.80;;;;;;;;;;5122133;27;20526;-66
2023/12/27 06:57:53;;;;;;;4.03;2.33;;;;;;;;;;5102746;27;20039;-66
2023/12/27 07:00:20;;;;;;;10.82;2.33;;;;;;;;;;5119558;27;20050;-66
2023/12/27 07:02:46;;;;;;;3.28;2.08;;;;;;;;;;5121190;27;20430;-67
2023/12/27 07:05:12;;;;;;;4.47;2.30;;;;;;;;;;5121524;27;20039;-66
2023/12/27 07:07:39;;;;;;;4.38;2.63;;;;;;;;;;5119864;27;20105;-65
2023/12/27 07:10:06;;;;;;;6.50;2.95;;;;;;;;;;5122122;27;20045;-66
2023/12/27 07:12:32;;;;;;;4.85;2.45;;;;;;;;;;5121064;27;20611;-66
2023/12/27 07:14:59;;;;;;;6.88;2.60;;;;;;;;;;5121756;27;20452;-66
2023/12/27 07:17:26;;;;;;;3.75;2.13;;;;;;;;;;5121572;27;20095;-66
2023/12/27 07:19:52;;;;;;;5.65;3.22;;;;;;;;;;5102431;27;20045;-66
2023/12/27 07:22:18;;;;;;;6.15;3.08;;;;;;;;;;5120155;27;20057;-67
2023/12/27 07:24:44;;;;;;;8.15;2.33;;;;;;;;;;5120418;27;20489;-67
2023/12/27 07:27:10;;;;;;;6.30;3.17;;;;;;;;;;5120841;27;20111;-67
2023/12/27 07:29:37;;;;;;;7.50;2.70;;;;;;;;;;5121214;27;20047;-66
2023/12/27 07:32:06;;;;;;;4.47;2.00;;;;;;;;;;5120405;27;20055;-65
2023/12/27 07:34:33;;;;;;;5.78;3.20;;;;;;;;;;5121219;27;20090;-66
2023/12/27 07:36:59;;;;;;;4.88;2.30;;;;;;;;;;5120401;27;20043;-65
2023/12/27 07:39:25;;;;;;;4.65;2.38;;;;;;;;;;5122508;27;21046;-67
2023/12/27 07:41:51;;;;;;;3.95;2.40;;;;;;;;;;5122185;27;20781;-67
2023/12/27 07:44:17;;;;;;;7.57;2.50;;;;;;;;;;5121204;27;20564;-66
2023/12/27 07:46:44;;;;;;;5.20;2.10;;;;;;;;;;5102516;28;20050;-66
2023/12/27 07:49:10;;;;;;;7.15;2.30;;;;;;;;;;5120507;28;20573;-65
2023/12/27 07:51:36;;;;;;;5.30;2.13;;;;;;;;;;5120877;28;20051;-67
2023/12/27 07:54:02;;;;;;;4.63;2.60;;;;;;;;;;5120558;28;20039;-65
2023/12/27 07:56:29;;;;;;;8.77;2.75;;;;;;;;;;5118409;27;20588;-66
2023/12/27 07:58:55;;;;;;;7.45;2.33;;;;;;;;;;5120483;27;20047;-65
2023/12/27 08:01:21;;;;;;;8.98;2.50;;;;;;;;;;5117560;27;20399;-67
2023/12/27 08:03:48;;;;;;;8.07;3.00;;;;;;;;;;5120535;28;20114;-66
2023/12/27 08:06:14;;;;;;;4.00;2.22;;;;;;;;;;5120464;28;20091;-66
2023/12/27 08:08:40;;;;;;;6.80;2.58;;;;;;;;;;5120203;27;20051;-66
2023/12/27 08:11:06;;;;;;;9.63;3.30;;;;;;;;;;5117859;27;20111;-65
2023/12/27 08:13:33;;;;;;;5.07;2.30;;;;;;;;;;5065736;27;20051;-66
2023/12/27 08:15:59;;;;;;;7.28;2.50;;;;;;;;;;5119613;28;20057;-66
2023/12/27 08:18:25;;;;;;;7.20;2.50;;;;;;;;;;5117235;27;20330;-65
2023/12/27 08:20:51;;;;;;;7.32;3.13;;;;;;;;;;5119020;27;20100;-65
2023/12/27 08:23:18;;;;;;;6.20;2.88;;;;;;;;;;5119271;28;20043;-66
2023/12/27 08:25:47;;;;;;;10.60;3.33;;;;;;;;;;5120630;27;20428;-65
2023/12/27 08:28:14;;;;;;;11.63;2.47;;;;;;;;;;5101125;27;20304;-65
2023/12/27 08:30:41;;;;;;;4.40;2.25;;;;;;;;;;5125150;27;20403;-66
2023/12/27 08:33:07;;;;;;;4.22;2.38;;;;;;;;;;5121921;27;20051;-66
2023/12/27 08:35:37;;;;;;;6.10;2.45;;;;;;;;;;5123806;27;20051;-66
2023/12/27 08:38:06;;;;;;;5.25;1.67;;;;;;;;;;5124076;27;20122;-65
2023/12/27 08:40:32;;;;;;;12.52;3.08;;;;;;;;;;5125393;27;20035;-66
2023/12/27 08:42:58;;;;;;;12.80;2.53;;;;;;;;;;5124685;27;20035;-66
2023/12/27 08:45:25;;;;;;;9.68;2.65;;;;;;;;;;5126170;27;20043;-66
2023/12/27 08:47:51;;;;;;;5.47;2.58;;;;;;;;;;5125763;27;20375;-65
2023/12/27 08:50:17;;;;;;;8.27;2.75;;;;;;;;;;5106894;27;20099;-65
2023/12/27 08:52:43;;;;;;;5.85;2.38;;;;;;;;;;5125156;27;20043;-66
2023/12/27 08:55:10;;;;;;;5.88;2.85;;;;;;;;;;5126216;27;20055;-66
2023/12/27 08:57:39;;;;;;;4.15;2.53;;;;;;;;;;5125726;27;20043;-66
2023/12/27 09:00:10;;;;;;;4.78;2.38;;;;;;;;;;5121074;27;20135;-66
2023/12/27 09:02:37;;;;;;;5.07;2.20;;;;;;;;;;5124007;27;20391;-66
2023/12/27 09:05:04;;;;;;;8.35;2.63;;;;;;;;;;5140526;27;20527;-66
2023/12/27 09:07:31;;;;;;;8.48;2.22;;;;;;;;;;5087625;27;20058;-66
2023/12/27 09:09:57;;;;;;;4.78;2.33;;;;;;;;;;5125168;27;20111;-67
2023/12/27 09:12:24;;;;;;;6.53;2.63;;;;;;;;;;5123988;27;20035;-65
2023/12/27 09:14:50;;;;;;;9.15;2.53;;;;;;;;;;5124667;27;20656;-66
2023/12/27 09:17:16;;;;;;;8.55;3.97;;;;;;;;;;5089309;27;20120;-65
2023/12/27 09:19:42;;;;;;;8.20;3.00;;;;;;;;;;5125165;27;20042;-65
2023/12/27 09:22:09;;;;;;;4.95;2.42;;;;;;;;;;5124459;27;20585;-65
2023/12/27 09:24:35;;;;;;;5.43;2.40;;;;;;;;;;5124417;27;20039;-65
2023/12/27 09:27:01;;;;;;;6.07;2.92;;;;;;;;;;5120832;27;20787;-65
2023/12/27 09:29:27;;;;;;;6.35;2.78;;;;;;;;;;5122806;27;20489;-66
2023/12/27 09:31:54;;;;;;;5.40;2.70;;;;;;;;;;5104106;27;20569;-66
2023/12/27 09:34:20;;;;;;;7.45;2.80;;;;;;;;;;5124187;27;20243;-65
2023/12/27 09:36:46;;;;;;;8.50;2.92;;;;;;;;;;5123233;27;20147;-66
2023/12/27 09:39:13;;;;;;;5.25;3.10;;;;;;;;;;5101522;27;20545;-65
2023/12/27 09:41:40;;;;;;;2.63;1.90;;;;;;;;;;5123687;27;20526;-65
2023/12/27 09:44:13;;;;;;;8.63;2.20;;;;;;;;;;5123171;27;20127;-65
2023/12/27 09:46:40;;;;;;;8.93;3.15;;;;;;;;;;5123937;27;20035;-66
2023/12/27 09:49:08;;;;;;;4.90;2.63;;;;;;;;;;5125387;27;20363;-66
2023/12/27 09:51:36;;;;;;;5.10;2.58;;;;;;;;;;5124567;27;20443;-66
2023/12/27 09:54:02;;;;;;;6.97;2.53;;;;;;;;;;5123555;27;20196;-66
2023/12/27 09:56:29;;;;;;;8.05;2.35;;;;;;;;;;5124480;27;20115;-67
2023/12/27 09:59:03;;;;;;;7.47;2.55;;;;;;;;;;5122354;27;20077;-66
2023/12/27 10:01:31;;;;;;;8.98;3.35;;;;;;;;;;5123799;27;20845;-66
2023/12/27 10:04:05;;;;;;;8.63;2.45;;;;;;;;;;5123521;27;20078;-67
2023/12/27 10:06:44;;;;;;;10.15;3.13;;;;;;;;;;5125124;27;20498;-66
2023/12/27 10:09:11;;;;;;;5.03;2.70;;;;;;;;;;5123319;27;20084;-66
2023/12/27 10:11:42;;;;;;;5.60;2.85;;;;;;;;;;5124101;27;20359;-66
2023/12/27 10:14:09;;;;;;;6.07;2.13;;;;;;;;;;5123238;27;20033;-65
2023/12/27 10:16:36;;;;;;;7.18;3.88;;;;;;;;;;5123038;27;20039;-66
2023/12/27 10:19:04;;;;;;;8.00;2.80;;;;;;;;;;5105050;27;20054;-66
2023/12/27 10:21:44;;;;;;;6.75;2.65;;;;;;;;;;5124060;27;20043;-66
2023/12/27 10:24:10;;;;;;;6.57;3.13;;;;;;;;;;5124480;27;20589;-66
2023/12/27 10:26:37;;;;;;;7.35;2.80;;;;;;;;;;5123262;27;20039;-66
2023/12/27 10:29:03;;;;;;;5.10;3.15;;;;;;;;;;5123090;27;20054;-67
2023/12/27 10:31:30;;;;;;;7.82;3.70;;;;;;;;;;5123434;27;20044;-66
2023/12/27 10:33:58;;;;;;;11.18;3.30;;;;;;;;;;5123253;27;20278;-66
2023/12/27 10:36:25;;;;;;;6.47;3.38;;;;;;;;;;5123977;27;20079;-66
2023/12/27 10:38:52;;;;;;;9.15;3.15;;;;;;;;;;5122375;27;20148;-67
2023/12/27 10:41:18;;;;;;;10.95;3.72;;;;;;;;;;5123182;27;20282;-67
2023/12/27 10:43:46;;;;;;;6.95;3.67;;;;;;;;;;5122299;27;20487;-66
2023/12/27 10:46:12;;;;;;;8.05;3.10;;;;;;;;;;5123647;27;20107;-67
2023/12/27 10:48:39;;;;;;;8.18;4.03;;;;;;;;;;5123110;27;20096;-66
2023/12/27 10:51:07;;;;;;;11.07;3.63;;;;;;;;;;5122782;27;20199;-65
2023/12/27 10:53:37;;;;;;;5.60;3.30;;;;;;;;;;5122663;27;20221;-66
2023/12/27 10:56:04;;;;;;;7.00;3.70;;;;;;;;;;5123472;27;20556;-66
2023/12/27 10:58:33;;;;;;;7.90;3.42;;;;;;;;;;5122727;27;20131;-67
2023/12/27 11:01:00;;;;;;;10.93;4.22;;;;;;;;;;5123508;27;20047;-66
2023/12/27 11:03:29;;;;;;;7.60;3.67;;;;;;;;;;5121591;27;20051;-66
2023/12/27 11:05:56;;;;;;;17.67;4.70;;;;;;;;;;5122681;27;20085;-65
2023/12/27 11:08:23;;;;;;;11.10;3.90;;;;;;;;;;5122175;27;20092;-65
2023/12/27 11:10:50;;;;;;;12.15;4.60;;;;;;;;;;5122908;27;20469;-66
2023/12/27 11:13:19;;;;;;;6.45;3.25;;;;;;;;;;5122416;27;20083;-66
2023/12/27 11:15:46;;;;;;;7.15;4.40;;;;;;;;;;5104126;27;20039;-66
2023/12/27 11:18:12;;;;;;;8.32;4.03;;;;;;;;;;5122354;27;20142;-66
2023/12/27 11:20:40;;;;;;;10.57;4.32;;;;;;;;;;5103132;27;20059;-66
2023/12/27 11:23:08;;;;;;;9.20;4.00;;;;;;;;;;5122915;27;20134;-65
2023/12/27 11:25:34;;;;;;;9.63;4.70;;;;;;;;;;5123162;27;20063;-66
2023/12/27 11:28:02;;;;;;;11.80;4.95;;;;;;;;;;5121477;27;20038;-65
2023/12/27 11:30:29;;;;;;;6.97;3.83;;;;;;;;;;5122956;27;20358;-65
2023/12/27 11:32:55;;;;;;;8.65;5.07;;;;;;;;;;5095916;28;20135;-64
2023/12/27 11:35:25;;;;;;;10.55;6.05;;;;;;;;;;5121956;27;20126;-64
2023/12/27 11:37:52;;;;;;;10.30;4.78;;;;;;;;;;5121839;27;20104;-66
2023/12/27 11:40:34;;;;;;;8.10;5.00;;;;;;;;;;5121406;27;20046;-66
2023/12/27 11:43:00;;;;;;;12.15;4.95;;;;;;;;;;5122811;27;20495;-66
2023/12/27 11:45:49;;;;;;;9.10;5.00;;;;;;;;;;5123303;27;20035;-67
2023/12/27 11:48:16;;;;;;;11.38;6.78;;;;;;;;;;5123546;28;20047;-67
2023/12/27 11:50:43;;;;;;;9.27;4.97;;;;;;;;;;5104165;28;20054;-66
2023/12/27 11:53:10;;;;;;;12.30;6.32;;;;;;;;;;5122144;28;20047;-66
2023/12/27 11:55:36;;;;;;;9.35;5.50;;;;;;;;;;5121897;27;20176;-66
2023/12/27 11:58:02;;;;;;;11.77;5.80;;;;;;;;;;5122217;27;20046;-65
2023/12/27 12:00:28;;;;;;;8.55;4.38;;;;;;;;;;5123358;28;20040;-66
2023/12/27 12:02:59;;;;;;;6.70;4.72;;;;;;;;;;5102645;27;20047;-65
2023/12/27 12:05:35;;;;;;;8.73;5.13;;;;;;;;;;5128031;27;20074;-68
2023/12/27 12:08:18;;;;;;;9.50;4.90;;;;;;;;;;5125826;27;20516;-66
2023/12/27 12:10:44;;;;;;;12.93;6.63;;;;;;;;;;5127260;27;20043;-66
2023/12/27 12:13:10;;;;;;;12.25;5.20;;;;;;;;;;5126763;27;20142;-66
2023/12/27 12:15:36;;;;;;;12.80;5.20;;;;;;;;;;5126225;27;20070;-66
2023/12/27 12:18:03;;;;;;;10.80;6.00;;;;;;;;;;5090753;27;20039;-66
2023/12/27 12:20:30;;;;;;;10.57;5.40;;;;;;;;;;5090449;27;20578;-67
2023/12/27 12:22:57;;;;;;;9.55;5.22;;;;;;;;;;5073436;27;20039;-65
2023/12/27 12:25:25;;;;;;;10.13;5.30;;;;;;;;;;5106726;27;20047;-66
2023/12/27 12:27:51;;;;;;;9.15;5.35;;;;;;;;;;5090725;27;20049;-65
2023/12/27 12:30:17;;;;;;;9.50;5.72;;;;;;;;;;5126775;27;20126;-65
2023/12/27 12:32:43;;;;;;;10.68;5.93;;;;;;;;;;5126257;27;20127;-67
2023/12/27 12:35:10;;;;;;;9.27;5.22;;;;;;;;;;5107638;27;20130;-66
2023/12/27 12:37:37;;;;;;;6.22;4.78;;;;;;;;;;5125448;27;20096;-64
2023/12/27 12:40:08;;;;;;;10.55;4.97;;;;;;;;;;5125734;27;20554;-64
2023/12/27 12:42:35;;;;;;;8.45;5.75;;;;;;;;;;5126209;27;20047;-64
2023/12/27 12:45:03;;;;;;;10.13;5.93;;;;;;;;;;5124352;27;20424;-66
2023/12/27 12:47:29;;;;;;;5.43;4.53;;;;;;;;;;5122013;27;20130;-66
2023/12/27 12:49:55;;;;;;;6.72;4.78;;;;;;;;;;5103583;27;20043;-65
2023/12/27 12:52:21;;;;;;;8.68;4.65;;;;;;;;;;5121956;27;20046;-64
2023/12/27 12:54:48;;;;;;;8.38;5.78;;;;;;;;;;5123280;27;20047;-66
2023/12/27 12:57:15;;;;;;;6.30;4.78;;;;;;;;;;5120955;27;20042;-65
2023/12/27 12:59:41;;;;;;;9.85;5.63;;;;;;;;;;5125291;27;20070;-65
2023/12/27 13:02:08;;;;;;;7.10;5.78;;;;;;;;;;5125031;27;20046;-65
2023/12/27 13:04:34;;;;;;;8.40;6.30;;;;;;;;;;5126185;27;20038;-66
2023/12/27 13:07:00;;;;;;;6.70;4.97;;;;;;;;;;5124506;27;20043;-65
2023/12/27 13:09:27;;;;;;;8.02;4.68;;;;;;;;;;5124948;27;20056;-65
2023/12/27 13:11:53;;;;;;;6.28;5.07;;;;;;;;;;5124132;27;20148;-65
2023/12/27 13:14:20;;;;;;;11.40;6.88;;;;;;;;;;5105059;27;20047;-66
2023/12/27 13:16:46;;;;;;;7.50;5.13;;;;;;;;;;5106732;27;20088;-67
2023/12/27 13:19:13;;;;;;;9.35;6.10;;;;;;;;;;5125144;27;20458;-65
2023/12/27 13:21:39;;;;;;;7.50;5.50;;;;;;;;;;5124236;27;20063;-65
2023/12/27 13:24:05;;;;;;;7.68;5.50;;;;;;;;;;5124821;27;20042;-65
2023/12/27 13:26:31;;;;;;;9.68;5.90;;;;;;;;;;5124394;27;20046;-66
2023/12/27 13:28:58;;;;;;;11.65;6.43;;;;;;;;;;5124088;27;20035;-66
2023/12/27 13:31:24;;;;;;;7.88;6.00;;;;;;;;;;5104548;27;20470;-66
2023/12/27 13:33:50;;;;;;;8.77;6.05;;;;;;;;;;5124367;27;20086;-66
2023/12/27 13:36:16;;;;;;;6.40;5.30;;;;;;;;;;5124709;27;20054;-66
2023/12/27 13:38:42;;;;;;;7.68;6.00;;;;;;;;;;5118820;27;20524;-66
2023/12/27 13:41:08;;;;;;;7.28;5.68;;;;;;;;;;5100280;27;20445;-66
2023/12/27 13:43:34;;;;;;;8.80;6.13;;;;;;;;;;5119647;27;20039;-66
2023/12/27 13:46:01;;;;;;;8.88;6.57;;;;;;;;;;5122189;27;20042;-65
2023/12/27 13:48:27;;;;;;;8.20;6.40;;;;;;;;;;5121617;27;20043;-65
2023/12/27 13:50:53;;;;;;;9.85;7.07;;;;;;;;;;5121136;27;20498;-66
2023/12/27 13:53:19;;;;;;;9.02;5.95;;;;;;;;;;5120981;27;20039;-66
2023/12/27 13:55:45;;;;;;;9.27;6.68;;;;;;;;;;5100967;27;20401;-67
2023/12/27 13:58:11;;;;;;;10.43;7.60;;;;;;;;;;5122043;27;20088;-66
2023/12/27 14:00:38;;;;;;;10.13;7.32;;;;;;;;;;5103551;27;20050;-67
2023/12/27 14:03:04;;;;;;;11.60;7.65;;;;;;;;;;5120318;27;20042;-65
2023/12/27 14:05:32;;;;;;;11.35;7.55;;;;;;;;;;5121286;27;20054;-66
2023/12/27 14:07:58;;;;;;;7.40;6.35;;;;;;;;;;5120366;27;20506;-67
2023/12/27 14:10:24;;;;;;;10.25;8.02;;;;;;;;;;5101513;27;20139;-66
2023/12/27 14:12:50;;;;;;;8.73;7.38;;;;;;;;;;5101986;27;20346;-67
2023/12/27 14:15:17;;;;;;;9.35;7.72;;;;;;;;;;5120476;27;20565;-66
2023/12/27 14:17:45;;;;;;;10.98;7.75;;;;;;;;;;5120524;27;20039;-65
2023/12/27 14:20:14;;;;;;;13.15;8.13;;;;;;;;;;5121325;27;20082;-66
2023/12/27 14:22:41;;;;;;;10.88;8.23;;;;;;;;;;5101248;27;20039;-65
2023/12/27 14:25:09;;;;;;;9.18;7.72;;;;;;;;;;5120459;27;20122;-66
2023/12/27 14:27:35;;;;;;;8.27;6.80;;;;;;;;;;5119181;27;20074;-66
2023/12/27 14:30:02;;;;;;;10.07;7.93;;;;;;;;;;5120033;27;20053;-66
2023/12/27 14:32:28;;;;;;;11.45;7.93;;;;;;;;;;5118330;27;20074;-66
2023/12/27 14:34:55;;;;;;;12.70;8.27;;;;;;;;;;5120945;27;20055;-66
2023/12/27 14:37:21;;;;;;;12.07;7.82;;;;;;;;;;5119828;27;20055;-66